Time;durP1;ratioP1;P1;durP2;ratioP2;P2;SDS_P1;SDS_P2;PMS_P1;PMS_P2;Temp;Humidity;BMP_temperature;BMP_pressure;BME280_temperature;BME280_humidity;BME280_pressure;Samples;Min_cycle;Max_cycle;Signal;HPM_P1;HPM_P2
2022/12/11 00:01:29;;;;;;;;;;;0.70;99.90;;;;;;5075552;28;19924;-66
2022/12/11 00:03:55;;;;;;;;;;;0.70;99.90;;;;;;5075778;28;19952;-66
2022/12/11 00:06:21;;;;;;;;;;;0.70;99.90;;;;;;5075520;28;19999;-66
2022/12/11 00:08:46;;;;;;;;;;;0.70;99.90;;;;;;5075734;28;20061;-66
2022/12/11 00:11:13;;;;;;;;;;;0.70;99.90;;;;;;5075724;28;20386;-67
2022/12/11 00:13:38;;;;;;;;;;;0.70;99.90;;;;;;5075649;28;19930;-66
2022/12/11 00:16:04;;;;;;;;;;;0.70;99.90;;;;;;5075300;28;19908;-66
2022/12/11 00:18:30;;;;;;;;;;;0.70;99.90;;;;;;5075245;28;20370;-66
2022/12/11 00:20:59;;;;;;;;;;;0.70;99.90;;;;;;5075215;28;19961;-66
2022/12/11 00:23:24;;;;;;;;;;;0.70;99.90;;;;;;5075328;28;19927;-66
2022/12/11 00:25:50;;;;;;;;;;;0.60;99.90;;;;;;5075144;28;19999;-66
2022/12/11 00:28:17;;;;;;;;;;;0.60;99.90;;;;;;5075299;28;19915;-66
2022/12/11 00:30:43;;;;;;;;;;;0.60;99.90;;;;;;5075272;28;19992;-66
2022/12/11 00:33:09;;;;;;;;;;;0.60;99.90;;;;;;5074970;28;20001;-66
2022/12/11 00:35:39;;;;;;;;;;;0.60;99.90;;;;;;5075150;28;19916;-66
2022/12/11 00:38:04;;;;;;;;;;;0.60;99.90;;;;;;5075114;28;19915;-67
2022/12/11 00:40:32;;;;;;;;;;;0.60;99.90;;;;;;5074779;28;19909;-66
2022/12/11 00:42:57;;;;;;;;;;;0.60;99.90;;;;;;5074648;28;19912;-66
2022/12/11 00:45:23;;;;;;;;;;;0.60;99.90;;;;;;5074809;28;19919;-66
2022/12/11 00:47:48;;;;;;;;;;;0.60;99.90;;;;;;5074239;28;19912;-66
2022/12/11 00:50:14;;;;;;;;;;;0.60;99.90;;;;;;5074586;28;19912;-64
2022/12/11 00:52:39;;;;;;;;;;;0.60;99.90;;;;;;5074554;28;19914;-66
2022/12/11 00:55:05;;;;;;;;;;;0.60;99.90;;;;;;5056906;28;19950;-67
2022/12/11 00:57:30;;;;;;;;;;;0.60;99.90;;;;;;5074411;28;20366;-66
2022/12/11 00:59:56;;;;;;;;;;;0.60;99.90;;;;;;5074430;28;20003;-66
2022/12/11 01:02:21;;;;;;;;;;;0.60;99.90;;;;;;5074061;28;19920;-66
2022/12/11 01:04:46;;;;;;;;;;;0.60;99.90;;;;;;5074602;28;19914;-66
2022/12/11 01:07:12;;;;;;;;;;;0.60;99.90;;;;;;5074557;28;19939;-67
2022/12/11 01:12:23;;;;;;;;;;;0.60;99.90;;;;;;5074014;28;19916;-67
2022/12/11 01:14:49;;;;;;;;;;;0.60;99.90;;;;;;5074415;28;19908;-66
2022/12/11 01:17:15;;;;;;;;;;;0.60;99.90;;;;;;5074105;28;19916;-66
2022/12/11 01:19:40;;;;;;;;;;;0.50;99.90;;;;;;5056192;28;19912;-67
2022/12/11 01:22:06;;;;;;;;;;;0.50;99.90;;;;;;5073972;28;19993;-66
2022/12/11 01:24:31;;;;;;;;;;;0.50;99.90;;;;;;5074034;28;19908;-66
2022/12/11 01:26:57;;;;;;;;;;;0.50;99.90;;;;;;5074182;28;19915;-67
2022/12/11 01:29:22;;;;;;;;;;;0.50;99.90;;;;;;5073987;28;20008;-66
2022/12/11 01:31:48;;;;;;;;;;;0.50;99.90;;;;;;5074168;28;20362;-66
2022/12/11 01:34:13;;;;;;;;;;;0.50;99.90;;;;;;5074111;28;19913;-66
2022/12/11 01:36:39;;;;;;;;;;;0.50;99.90;;;;;;5074111;28;19916;-66
2022/12/11 01:39:04;;;;;;;;;;;0.50;99.90;;;;;;5073778;28;20414;-66
2022/12/11 01:41:30;;;;;;;;;;;0.50;99.90;;;;;;5073963;28;19912;-65
2022/12/11 01:44:04;;;;;;;;;;;0.50;99.90;;;;;;5074014;28;19909;-64
2022/12/11 01:46:31;;;;;;;;;;;0.60;99.90;;;;;;5073748;28;20378;-64
2022/12/11 01:48:58;;;;;;;;;;;0.50;99.90;;;;;;5073717;28;20003;-66
2022/12/11 01:51:23;;;;;;;;;;;0.50;99.90;;;;;;5073970;28;19913;-67
2022/12/11 01:53:51;;;;;;;;;;;0.50;99.90;;;;;;5073972;28;20472;-66
2022/12/11 01:56:17;;;;;;;;;;;0.50;99.90;;;;;;5073626;28;19909;-66
2022/12/11 01:58:46;;;;;;;;;;;0.50;99.90;;;;;;5073745;28;20012;-66
2022/12/11 02:01:17;;;;;;;;;;;0.50;99.90;;;;;;5073398;28;19915;-66
2022/12/11 02:03:42;;;;;;;;;;;0.50;99.90;;;;;;5073781;28;20386;-66
2022/12/11 02:06:28;;;;;;;;;;;0.50;99.90;;;;;;5073547;28;19908;-66
2022/12/11 02:08:53;;;;;;;;;;;0.40;99.90;;;;;;5073478;28;20293;-66
2022/12/11 02:11:22;;;;;;;;;;;0.40;99.90;;;;;;5073490;28;19909;-67
2022/12/11 02:13:59;;;;;;;;;;;0.50;99.90;;;;;;5073465;28;19908;-66
2022/12/11 02:16:44;;;;;;;;;;;0.50;99.90;;;;;;5073696;28;20011;-66
2022/12/11 02:19:17;;;;;;;;;;;0.50;99.90;;;;;;5073319;28;19958;-66
2022/12/11 02:21:46;;;;;;;;;;;0.50;99.90;;;;;;5073330;28;19986;-66
2022/12/11 02:24:32;;;;;;;;;;;0.40;99.90;;;;;;5073641;28;19908;-66
2022/12/11 02:27:10;;;;;;;;;;;0.40;99.90;;;;;;5073188;28;19935;-66
2022/12/11 02:29:48;;;;;;;;;;;0.40;99.90;;;;;;5073275;28;19959;-66
2022/12/11 02:32:16;;;;;;;;;;;0.40;99.90;;;;;;5073270;28;19947;-66
2022/12/11 02:34:45;;;;;;;;;;;0.40;99.90;;;;;;5073528;28;20017;-66
2022/12/11 02:37:13;;;;;;;;;;;0.40;99.90;;;;;;5073173;28;19939;-66
2022/12/11 02:39:40;;;;;;;;;;;0.40;99.90;;;;;;5073432;28;20282;-66
2022/12/11 02:42:06;;;;;;;;;;;0.40;99.90;;;;;;5073361;28;20381;-67
2022/12/11 02:44:32;;;;;;;;;;;0.40;99.90;;;;;;5073508;28;19909;-67
2022/12/11 02:46:58;;;;;;;;;;;0.40;99.90;;;;;;5073401;28;19916;-66
2022/12/11 02:49:25;;;;;;;;;;;0.40;99.90;;;;;;5073131;28;20050;-66
2022/12/11 02:51:51;;;;;;;;;;;0.40;99.90;;;;;;5073333;28;19912;-67
2022/12/11 02:54:20;;;;;;;;;;;0.30;99.90;;;;;;5073334;28;19908;-67
2022/12/11 02:56:50;;;;;;;;;;;0.30;99.90;;;;;;5073265;28;19962;-66
2022/12/11 02:59:25;;;;;;;;;;;0.30;99.90;;;;;;5073252;28;19915;-67
2022/12/11 03:01:50;;;;;;;;;;;0.30;99.90;;;;;;5072720;28;19920;-66
2022/12/11 03:04:16;;;;;;;;;;;0.30;99.90;;;;;;5072949;28;20371;-66
2022/12/11 03:06:45;;;;;;;;;;;0.30;99.90;;;;;;5072947;28;19908;-66
2022/12/11 03:09:11;;;;;;;;;;;0.30;99.90;;;;;;5073427;28;19958;-66
2022/12/11 03:11:36;;;;;;;;;;;0.20;99.90;;;;;;5076538;28;20282;-66
2022/12/11 03:14:02;;;;;;;;;;;0.20;99.90;;;;;;5076494;28;20007;-66
2022/12/11 03:16:31;;;;;;;;;;;0.10;99.90;;;;;;5076442;28;19915;-66
2022/12/11 03:19:00;;;;;;;;;;;0.10;99.90;;;;;;5076658;28;19952;-67
2022/12/11 03:21:32;;;;;;;;;;;0.10;99.90;;;;;;5076618;28;19909;-66
2022/12/11 03:24:17;;;;;;;;;;;0.10;99.90;;;;;;5076584;28;19912;-66
2022/12/11 03:26:45;;;;;;;;;;;0.10;99.90;;;;;;5076142;28;19915;-66
2022/12/11 03:29:16;;;;;;;;;;;0.10;99.90;;;;;;5076203;28;20417;-66
2022/12/11 03:31:44;;;;;;;;;;;0.00;99.90;;;;;;5076439;28;20278;-66
2022/12/11 03:34:13;;;;;;;;;;;0.00;99.90;;;;;;5076151;28;19915;-66
2022/12/11 03:36:38;;;;;;;;;;;0.00;99.90;;;;;;5076074;28;19944;-66
2022/12/11 03:39:07;;;;;;;;;;;0.10;99.90;;;;;;5076291;28;19952;-66
2022/12/11 03:41:34;;;;;;;;;;;0.10;99.90;;;;;;5075944;28;19909;-66
2022/12/11 03:44:00;;;;;;;;;;;0.10;99.90;;;;;;5075965;28;19909;-67
2022/12/11 03:46:29;;;;;;;;;;;0.10;99.90;;;;;;5076157;28;19908;-67
2022/12/11 03:48:58;;;;;;;;;;;0.10;99.90;;;;;;5076171;28;19962;-67
2022/12/11 03:51:24;;;;;;;;;;;0.10;99.90;;;;;;5076083;28;20409;-66
2022/12/11 03:53:49;;;;;;;;;;;0.20;99.90;;;;;;5076060;28;20313;-66
2022/12/11 03:56:16;;;;;;;;;;;0.20;99.90;;;;;;5076020;28;19958;-67
2022/12/11 03:58:41;;;;;;;;;;;0.20;99.90;;;;;;5075693;28;20003;-66
2022/12/11 04:01:08;;;;;;;;;;;0.20;99.90;;;;;;5075745;28;19956;-67
2022/12/11 04:03:33;;;;;;;;;;;0.30;99.90;;;;;;5075772;28;20303;-66
2022/12/11 04:05:59;;;;;;;;;;;0.30;99.90;;;;;;5075825;28;19995;-66
2022/12/11 04:08:24;;;;;;;;;;;0.30;99.90;;;;;;5075508;28;19908;-66
2022/12/11 04:13:36;;;;;;;;;;;0.30;99.90;;;;;;5075202;28;19908;-66
2022/12/11 04:16:01;;;;;;;;;;;0.30;99.90;;;;;;5075630;28;20335;-66
2022/12/11 04:24:28;;;;;;;;;;;0.20;99.90;;;;;;5074882;28;19919;-67
2022/12/11 04:26:44;;;;;;;;;;;0.20;99.90;;;;;;5074919;28;20427;-66
2022/12/11 04:29:10;;;;;;;;;;;0.30;99.90;;;;;;5075336;28;20286;-66
2022/12/11 04:31:35;;;;;;;;;;;0.30;99.90;;;;;;5075112;28;19908;-66
2022/12/11 04:34:00;;;;;;;;;;;0.30;99.90;;;;;;5075232;28;19940;-66
2022/12/11 04:36:26;;;;;;;;;;;0.30;99.90;;;;;;5075181;28;20378;-66
2022/12/11 04:38:51;;;;;;;;;;;0.30;99.90;;;;;;5074867;28;19916;-66
2022/12/11 04:41:17;;;;;;;;;;;0.30;99.90;;;;;;5074793;28;19967;-64
2022/12/11 04:43:44;;;;;;;;;;;0.40;99.90;;;;;;5074978;28;19912;-67
2022/12/11 04:46:18;;;;;;;;;;;0.30;99.90;;;;;;5075018;28;20291;-64
2022/12/11 04:48:43;;;;;;;;;;;0.30;99.90;;;;;;5074934;28;19931;-64
2022/12/11 04:51:09;;;;;;;;;;;0.30;99.90;;;;;;5074928;28;20370;-64
2022/12/11 04:53:35;;;;;;;;;;;0.30;99.90;;;;;;5074849;28;20376;-64
2022/12/11 04:56:03;;;;;;;;;;;0.30;99.90;;;;;;5074791;28;20403;-64
2022/12/11 04:58:29;;;;;;;;;;;0.30;99.90;;;;;;5074824;28;19953;-65
2022/12/11 05:00:54;;;;;;;;;;;0.30;99.90;;;;;;5074661;28;19991;-65
2022/12/11 05:03:20;;;;;;;;;;;0.30;99.90;;;;;;5074168;28;19924;-64
2022/12/11 05:05:48;;;;;;;;;;;0.30;99.90;;;;;;5074615;28;20485;-64
2022/12/11 05:08:13;;;;;;;;;;;0.20;99.90;;;;;;5074561;28;20370;-64
2022/12/11 05:10:39;;;;;;;;;;;0.20;99.90;;;;;;5074521;28;19909;-64
2022/12/11 05:13:04;;;;;;;;;;;0.30;99.90;;;;;;5074466;28;19948;-65
2022/12/11 05:15:29;;;;;;;;;;;0.30;99.90;;;;;;5074253;28;20443;-65
2022/12/11 05:17:55;;;;;;;;;;;0.30;99.90;;;;;;5074119;28;19908;-65
2022/12/11 05:20:20;;;;;;;;;;;0.30;99.90;;;;;;5074358;28;19908;-65
2022/12/11 05:22:46;;;;;;;;;;;0.30;99.90;;;;;;5073984;28;19998;-65
2022/12/11 05:25:11;;;;;;;;;;;0.30;99.90;;;;;;5074011;28;19958;-65
2022/12/11 05:27:37;;;;;;;;;;;0.30;99.90;;;;;;5074232;28;19909;-65
2022/12/11 05:30:03;;;;;;;;;;;0.30;99.90;;;;;;5074209;28;20322;-65
2022/12/11 05:32:29;;;;;;;;;;;0.30;99.90;;;;;;5073511;28;20437;-65
2022/12/11 05:34:54;;;;;;;;;;;0.30;99.90;;;;;;5073925;28;19908;-65
2022/12/11 05:37:20;;;;;;;;;;;0.30;99.90;;;;;;5073886;28;20297;-65
2022/12/11 05:39:45;;;;;;;;;;;0.30;99.90;;;;;;5074113;28;19962;-65
2022/12/11 05:42:11;;;;;;;;;;;0.30;99.90;;;;;;5073810;28;20382;-65
2022/12/11 05:44:36;;;;;;;;;;;0.30;99.90;;;;;;5074023;28;19908;-65
2022/12/11 05:47:02;;;;;;;;;;;0.30;99.90;;;;;;5074025;28;19908;-65
2022/12/11 05:49:27;;;;;;;;;;;0.30;99.90;;;;;;5073788;28;19915;-65
2022/12/11 05:51:53;;;;;;;;;;;0.30;99.90;;;;;;5074252;28;19958;-65
2022/12/11 05:54:18;;;;;;;;;;;0.30;99.90;;;;;;5073924;28;19915;-65
2022/12/11 05:56:44;;;;;;;;;;;0.30;99.90;;;;;;5073906;28;20321;-65
2022/12/11 05:59:09;;;;;;;;;;;0.30;99.90;;;;;;5073634;28;19956;-65
2022/12/11 06:01:36;;;;;;;;;;;0.30;99.90;;;;;;5073435;28;20015;-65
2022/12/11 06:04:03;;;;;;;;;;;0.30;99.90;;;;;;5073747;28;19957;-65
2022/12/11 06:06:28;;;;;;;;;;;0.30;99.90;;;;;;5073817;28;19908;-65
2022/12/11 06:08:55;;;;;;;;;;;0.30;99.90;;;;;;5073800;28;20001;-65
2022/12/11 06:11:21;;;;;;;;;;;0.30;99.90;;;;;;5073758;28;20382;-65
2022/12/11 06:13:47;;;;;;;;;;;0.40;99.90;;;;;;5073738;28;19909;-65
2022/12/11 06:16:12;;;;;;;;;;;0.40;99.90;;;;;;5073694;28;19916;-65
2022/12/11 06:18:39;;;;;;;;;;;0.40;99.90;;;;;;5073684;28;19908;-65
2022/12/11 06:21:13;;;;;;;;;;;0.40;99.90;;;;;;5073402;28;19916;-65
2022/12/11 06:23:39;;;;;;;;;;;0.40;99.90;;;;;;5073299;28;19913;-65
2022/12/11 06:26:04;;;;;;;;;;;0.40;99.90;;;;;;5073589;28;19912;-65
2022/12/11 06:28:30;;;;;;;;;;;0.40;99.90;;;;;;5073345;28;19970;-65
2022/12/11 06:30:59;;;;;;;;;;;0.40;99.90;;;;;;5073296;28;19909;-64
2022/12/11 06:33:24;;;;;;;;;;;0.40;99.90;;;;;;5073257;28;19909;-65
2022/12/11 06:35:50;;;;;;;;;;;0.40;99.90;;;;;;5073267;28;19909;-65
2022/12/11 06:38:16;;;;;;;;;;;0.50;99.90;;;;;;5073473;28;19908;-65
2022/12/11 06:40:42;;;;;;;;;;;0.40;99.90;;;;;;5073212;28;19915;-65
2022/12/11 06:43:07;;;;;;;;;;;0.40;99.90;;;;;;5073120;28;19912;-65
2022/12/11 06:45:32;;;;;;;;;;;0.40;99.90;;;;;;5075617;28;19931;-65
2022/12/11 06:47:58;;;;;;;;;;;0.40;99.90;;;;;;5076984;28;20010;-65
2022/12/11 06:50:23;;;;;;;;;;;0.40;99.90;;;;;;5077203;28;19912;-65
2022/12/11 06:52:49;;;;;;;;;;;0.40;99.90;;;;;;5076908;28;19916;-65
2022/12/11 06:55:14;;;;;;;;;;;0.30;99.90;;;;;;5076805;28;19932;-65
2022/12/11 06:57:40;;;;;;;;;;;0.40;99.90;;;;;;5076822;28;19908;-65
2022/12/11 07:00:06;;;;;;;;;;;0.40;99.90;;;;;;5076793;28;19908;-65
2022/12/11 07:02:31;;;;;;;;;;;0.40;99.90;;;;;;5076536;28;19943;-65
2022/12/11 07:04:56;;;;;;;;;;;0.40;99.90;;;;;;5076914;28;19915;-67
2022/12/11 07:07:22;;;;;;;;;;;0.40;99.90;;;;;;5076632;28;19970;-65
2022/12/11 07:09:47;;;;;;;;;;;0.40;99.90;;;;;;5076560;28;19931;-65
2022/12/11 07:12:13;;;;;;;;;;;0.40;99.90;;;;;;5076813;28;19914;-65
2022/12/11 07:14:38;;;;;;;;;;;0.40;99.90;;;;;;5058587;28;19909;-65
2022/12/11 07:17:04;;;;;;;;;;;0.40;99.90;;;;;;5076447;28;20006;-65
2022/12/11 07:19:29;;;;;;;;;;;0.40;99.90;;;;;;5076433;28;20285;-65
2022/12/11 07:21:55;;;;;;;;;;;0.40;99.90;;;;;;5076247;28;19974;-65
2022/12/11 07:24:20;;;;;;;;;;;0.40;99.90;;;;;;5076314;28;19908;-65
2022/12/11 07:26:46;;;;;;;;;;;0.40;99.90;;;;;;5076532;28;19999;-65
2022/12/11 07:29:11;;;;;;;;;;;0.40;99.90;;;;;;5076527;28;19908;-65
2022/12/11 07:31:37;;;;;;;;;;;0.40;99.90;;;;;;5076463;28;19917;-65
2022/12/11 07:34:04;;;;;;;;;;;0.40;99.90;;;;;;5076443;28;19908;-65
2022/12/11 07:36:30;;;;;;;;;;;0.50;99.90;;;;;;5076392;28;19912;-65
2022/12/11 07:38:56;;;;;;;;;;;0.50;99.90;;;;;;5076050;28;19908;-65
2022/12/11 07:41:22;;;;;;;;;;;0.50;99.90;;;;;;5076054;28;20010;-65
2022/12/11 07:43:48;;;;;;;;;;;0.50;99.90;;;;;;5076186;28;20286;-65
2022/12/11 07:46:15;;;;;;;;;;;0.50;99.90;;;;;;5076230;28;19908;-65
2022/12/11 07:48:41;;;;;;;;;;;0.40;99.90;;;;;;5076182;28;20400;-65
2022/12/11 07:51:11;;;;;;;;;;;0.40;99.90;;;;;;5076186;28;19908;-65
2022/12/11 07:53:36;;;;;;;;;;;0.40;99.90;;;;;;5076031;28;19908;-65
2022/12/11 07:56:02;;;;;;;;;;;0.40;99.90;;;;;;5075688;28;20282;-65
2022/12/11 07:58:28;;;;;;;;;;;0.40;99.90;;;;;;5075983;28;19909;-65
2022/12/11 08:00:53;;;;;;;;;;;0.40;99.90;;;;;;5075894;28;19913;-65
2022/12/11 08:03:19;;;;;;;;;;;0.40;99.90;;;;;;5075395;28;19972;-65
2022/12/11 08:05:48;;;;;;;;;;;0.40;99.90;;;;;;5075783;28;19962;-65
2022/12/11 08:08:14;;;;;;;;;;;0.50;99.90;;;;;;5075805;28;19948;-65
2022/12/11 08:10:40;;;;;;;;;;;0.50;99.90;;;;;;5075521;28;19915;-65
2022/12/11 08:13:05;;;;;;;;;;;0.50;99.90;;;;;;5075407;28;19950;-65
2022/12/11 08:15:30;;;;;;;;;;;0.50;99.90;;;;;;5075454;28;19950;-65
2022/12/11 08:17:56;;;;;;;;;;;0.60;99.90;;;;;;5075291;28;19908;-64
2022/12/11 08:20:21;;;;;;;;;;;0.60;99.90;;;;;;5075552;28;19908;-65
2022/12/11 08:22:47;;;;;;;;;;;0.60;99.90;;;;;;5075189;28;20382;-65
2022/12/11 08:25:12;;;;;;;;;;;0.60;99.90;;;;;;5075461;28;19908;-65
2022/12/11 08:27:38;;;;;;;;;;;0.60;99.90;;;;;;5075393;28;19916;-65
2022/12/11 08:30:04;;;;;;;;;;;0.60;99.90;;;;;;5075074;28;19913;-65
2022/12/11 08:32:30;;;;;;;;;;;0.60;99.90;;;;;;5075331;28;20370;-65
2022/12/11 08:34:55;;;;;;;;;;;0.60;99.90;;;;;;5075285;28;19931;-65
2022/12/11 08:37:24;;;;;;;;;;;0.60;99.90;;;;;;5057130;28;19912;-65
2022/12/11 08:39:49;;;;;;;;;;;0.60;99.90;;;;;;5057426;28;20263;-65
2022/12/11 08:42:15;;;;;;;;;;;0.60;99.90;;;;;;5075040;28;19966;-65
2022/12/11 08:44:40;;;;;;;;;;;0.60;99.90;;;;;;5074800;28;19975;-65
2022/12/11 08:47:06;;;;;;;;;;;0.60;99.90;;;;;;5074720;28;20282;-65
2022/12/11 08:49:31;;;;;;;;;;;0.60;99.90;;;;;;5074708;28;19909;-65
2022/12/11 08:51:57;;;;;;;;;;;0.60;99.90;;;;;;5074614;28;19909;-65
2022/12/11 08:54:22;;;;;;;;;;;0.60;99.90;;;;;;5074823;28;19908;-65
2022/12/11 08:56:51;;;;;;;;;;;0.70;99.90;;;;;;5074589;28;19909;-65
2022/12/11 08:59:17;;;;;;;;;;;0.70;99.90;;;;;;5074453;28;19915;-65
2022/12/11 09:01:42;;;;;;;;;;;0.70;99.90;;;;;;5074430;28;19922;-65
2022/12/11 09:04:08;;;;;;;;;;;0.70;99.90;;;;;;5074282;28;20006;-65
2022/12/11 09:06:33;;;;;;;;;;;0.70;99.90;;;;;;5074437;28;19912;-65
2022/12/11 09:09:00;;;;;;;;;;;0.70;99.90;;;;;;5056339;28;19908;-65
2022/12/11 09:11:26;;;;;;;;;;;0.70;99.90;;;;;;5074287;28;20263;-65
2022/12/11 09:13:52;;;;;;;;;;;0.80;99.90;;;;;;5074132;28;19915;-65
2022/12/11 09:16:19;;;;;;;;;;;0.80;99.90;;;;;;5074081;28;19908;-65
2022/12/11 09:18:46;;;;;;;;;;;0.80;99.90;;;;;;5074165;28;19919;-65
2022/12/11 09:21:13;;;;;;;;;;;0.80;99.90;;;;;;5074135;28;19913;-65
2022/12/11 09:23:39;;;;;;;;;;;0.80;99.90;;;;;;5074080;28;19912;-65
2022/12/11 09:26:05;;;;;;;;;;;0.80;99.90;;;;;;5074311;28;19988;-64
2022/12/11 09:28:31;;;;;;;;;;;0.80;99.90;;;;;;5074326;28;19917;-65
2022/12/11 09:30:56;;;;;;;;;;;0.80;99.90;;;;;;5074534;28;19909;-65
2022/12/11 09:33:21;;;;;;;;;;;0.80;99.90;;;;;;5073929;28;20371;-65
2022/12/11 09:35:55;;;;;;;;;;;0.80;99.90;;;;;;5073899;28;19983;-65
2022/12/11 09:38:21;;;;;;;;;;;0.90;99.90;;;;;;5073855;28;19914;-65
2022/12/11 09:40:46;;;;;;;;;;;0.90;99.90;;;;;;5073822;28;19955;-64
2022/12/11 09:43:17;;;;;;;;;;;0.80;99.90;;;;;;5073743;28;19913;-64
2022/12/11 09:45:42;;;;;;;;;;;0.80;99.90;;;;;;5073894;28;19963;-64
2022/12/11 09:48:09;;;;;;;;;;;0.80;99.90;;;;;;5074029;28;19908;-65
2022/12/11 09:50:35;;;;;;;;;;;0.80;99.90;;;;;;5073789;28;19947;-65
2022/12/11 09:53:10;;;;;;;;;;;0.80;99.90;;;;;;5073963;28;19908;-65
2022/12/11 09:55:56;;;;;;;;;;;0.80;99.90;;;;;;5073926;28;19915;-64
2022/12/11 09:58:29;;;;;;;;;;;0.90;99.90;;;;;;5073544;28;19909;-64
2022/12/11 10:01:01;;;;;;;;;;;0.90;99.90;;;;;;5073600;28;19920;-65
2022/12/11 10:03:48;;;;;;;;;;;0.90;99.90;;;;;;5073335;28;20305;-65
2022/12/11 10:06:32;;;;;;;;;;;0.90;99.90;;;;;;5073525;28;19951;-65
2022/12/11 10:09:15;;;;;;;;;;;0.90;99.90;;;;;;5073545;28;19908;-65
2022/12/11 10:11:48;;;;;;;;;;;0.90;99.90;;;;;;5073558;28;19908;-64
2022/12/11 10:14:24;;;;;;;;;;;0.90;99.90;;;;;;5073756;28;19958;-65
2022/12/11 10:16:53;;;;;;;;;;;0.90;99.90;;;;;;5073712;28;19908;-64
2022/12/11 10:19:20;;;;;;;;;;;0.90;99.90;;;;;;5075683;28;19908;-65
2022/12/11 10:21:46;;;;;;;;;;;0.80;99.90;;;;;;5077814;28;19916;-65
2022/12/11 10:24:16;;;;;;;;;;;0.90;99.90;;;;;;5077715;28;19919;-65
2022/12/11 10:26:42;;;;;;;;;;;0.90;99.90;;;;;;5077511;28;19908;-65
2022/12/11 10:29:12;;;;;;;;;;;0.90;99.90;;;;;;5077675;28;19909;-65
2022/12/11 10:31:50;;;;;;;;;;;0.90;99.90;;;;;;5077335;28;20018;-65
2022/12/11 10:34:22;;;;;;;;;;;0.90;99.90;;;;;;5077595;28;20389;-65
2022/12/11 10:36:48;;;;;;;;;;;1.00;99.90;;;;;;5077270;28;19962;-65
2022/12/11 10:39:15;;;;;;;;;;;1.00;99.90;;;;;;5077203;28;19912;-65
2022/12/11 10:41:41;;;;;;;;;;;1.00;99.90;;;;;;5077434;28;20418;-65
2022/12/11 10:44:24;;;;;;;;;;;1.00;99.90;;;;;;5077272;28;19920;-65
2022/12/11 10:47:01;;;;;;;;;;;1.00;99.90;;;;;;5077026;28;19916;-65
2022/12/11 10:49:40;;;;;;;;;;;1.10;99.90;;;;;;5076999;28;19908;-65
2022/12/11 10:52:22;;;;;;;;;;;1.10;99.90;;;;;;5058992;28;19958;-65
2022/12/11 10:54:54;;;;;;;;;;;1.00;99.90;;;;;;5076876;28;19908;-65
2022/12/11 10:57:25;;;;;;;;;;;1.00;99.90;;;;;;5077113;28;19912;-65
2022/12/11 10:59:51;;;;;;;;;;;1.00;99.90;;;;;;5076713;28;19909;-65
2022/12/11 11:02:20;;;;;;;;;;;1.00;99.90;;;;;;5076610;28;19924;-65
2022/12/11 11:04:46;;;;;;;;;;;1.00;99.90;;;;;;5076717;28;19913;-65
2022/12/11 11:07:13;;;;;;;;;;;1.00;99.90;;;;;;5058841;28;19915;-65
2022/12/11 11:09:40;;;;;;;;;;;1.00;99.90;;;;;;5076874;28;20011;-65
2022/12/11 11:12:25;;;;;;;;;;;1.00;99.90;;;;;;5076895;28;20366;-65
2022/12/11 11:14:59;;;;;;;;;;;1.00;99.90;;;;;;5076475;28;20004;-65
2022/12/11 11:17:25;;;;;;;;;;;1.00;99.90;;;;;;5076515;28;20053;-65
2022/12/11 11:19:50;;;;;;;;;;;0.90;99.90;;;;;;5076451;28;19966;-65
2022/12/11 11:22:18;;;;;;;;;;;0.90;99.90;;;;;;5076592;28;19916;-65
2022/12/11 11:24:45;;;;;;;;;;;1.00;99.90;;;;;;5076673;28;20277;-65
2022/12/11 11:27:24;;;;;;;;;;;1.00;99.90;;;;;;5076594;28;20281;-66
2022/12/11 11:29:54;;;;;;;;;;;1.00;99.90;;;;;;5075724;28;19955;-65
2022/12/11 11:32:22;;;;;;;;;;;1.00;99.90;;;;;;5076305;28;19908;-65
2022/12/11 11:34:47;;;;;;;;;;;1.00;99.90;;;;;;5076448;28;19909;-65
2022/12/11 11:37:21;;;;;;;;;;;1.00;99.90;;;;;;5076088;28;19931;-65
2022/12/11 11:39:49;;;;;;;;;;;1.00;99.90;;;;;;5076077;28;19909;-66
2022/12/11 11:42:18;;;;;;;;;;;1.00;99.90;;;;;;5075906;28;20279;-65
2022/12/11 11:44:49;;;;;;;;;;;1.00;99.90;;;;;;5076021;28;19909;-65
2022/12/11 11:47:18;;;;;;;;;;;1.00;99.90;;;;;;5075986;28;19955;-65
2022/12/11 11:50:03;;;;;;;;;;;1.10;99.90;;;;;;5076179;28;19909;-65
2022/12/11 11:52:33;;;;;;;;;;;1.10;99.90;;;;;;5076106;28;19908;-65
2022/12/11 11:55:08;;;;;;;;;;;1.10;99.90;;;;;;5075817;28;19908;-65
2022/12/11 11:57:38;;;;;;;;;;;1.10;99.90;;;;;;5076090;28;19917;-65
2022/12/11 12:00:17;;;;;;;;;;;1.20;99.90;;;;;;5075750;28;19908;-65
2022/12/11 12:02:42;;;;;;;;;;;1.20;99.90;;;;;;5075463;28;20339;-66
2022/12/11 12:05:11;;;;;;;;;;;1.10;99.90;;;;;;5075867;28;19909;-65
2022/12/11 12:07:48;;;;;;;;;;;1.10;99.90;;;;;;5075582;28;19915;-65
2022/12/11 12:10:19;;;;;;;;;;;1.10;99.90;;;;;;5075807;28;19944;-65
2022/12/11 12:12:49;;;;;;;;;;;1.10;99.90;;;;;;5075496;28;19912;-65
2022/12/11 12:15:20;;;;;;;;;;;1.10;99.90;;;;;;5075407;28;19957;-65
2022/12/11 12:18:06;;;;;;;;;;;1.10;99.90;;;;;;5075608;28;19919;-65
2022/12/11 12:20:51;;;;;;;;;;;1.10;99.90;;;;;;5075300;28;19916;-65
2022/12/11 12:23:24;;;;;;;;;;;1.20;99.90;;;;;;5074968;28;19923;-65
2022/12/11 12:26:02;;;;;;;;;;;1.10;99.90;;;;;;5075222;28;19909;-65
2022/12/11 12:28:50;;;;;;;;;;;1.20;99.90;;;;;;5075431;28;19931;-65
2022/12/11 12:31:36;;;;;;;;;;;1.10;99.90;;;;;;5075025;28;19919;-65
2022/12/11 12:34:21;;;;;;;;;;;1.20;99.90;;;;;;5075044;28;20442;-65
2022/12/11 12:39:38;;;;;;;;;;;1.10;99.90;;;;;;5091340;27;19913;-64
2022/12/11 12:42:08;;;;;;;;;;;1.10;99.90;;;;;;5124128;28;19913;-66
2022/12/11 12:44:39;;;;;;;;;;;1.00;99.90;;;;;;5091089;28;19915;-67
2022/12/11 12:47:09;;;;;;;;;;;1.00;99.90;;;;;;5091079;28;19962;-66
2022/12/11 12:49:39;;;;;;;;;;;1.00;99.90;;;;;;5091226;28;20281;-67
2022/12/11 12:52:06;;;;;;;;;;;1.10;99.90;;;;;;5090981;28;20413;-66
2022/12/11 12:54:32;;;;;;;;;;;1.00;99.90;;;;;;5090979;28;20014;-66
2022/12/11 12:56:58;;;;;;;;;;;1.00;99.90;;;;;;5090789;28;19909;-66
2022/12/11 12:59:25;;;;;;;;;;;1.00;99.90;;;;;;5091076;28;19966;-66
2022/12/11 13:01:54;;;;;;;;;;;1.00;99.90;;;;;;5091084;28;20262;-66
2022/12/11 13:04:26;;;;;;;;;;;1.00;99.90;;;;;;5091034;28;19916;-66
2022/12/11 13:06:52;;;;;;;;;;;1.00;99.90;;;;;;5091110;28;20270;-66
2022/12/11 13:09:20;;;;;;;;;;;1.00;99.90;;;;;;5090947;28;19915;-66
2022/12/11 13:11:48;;;;;;;;;;;1.00;99.90;;;;;;5090630;28;19908;-66
2022/12/11 13:14:16;;;;;;;;;;;1.00;99.90;;;;;;5123036;28;19909;-67
2022/12/11 13:16:43;;;;;;;;;;;1.00;99.90;;;;;;5090618;28;19908;-66
2022/12/11 13:19:25;;;;;;;;;;;1.00;99.90;;;;;;5090635;28;20019;-66
2022/12/11 13:22:11;;;;;;;;;;;0.90;99.90;;;;;;5090678;28;20286;-67
2022/12/11 13:24:44;;;;;;;;;;;0.90;99.90;;;;;;5090325;28;20440;-66
2022/12/11 13:27:20;;;;;;;;;;;1.00;99.90;;;;;;5090343;28;19908;-66
2022/12/11 13:29:46;;;;;;;;;;;0.90;99.90;;;;;;5090536;28;20263;-67
2022/12/11 13:32:15;;;;;;;;;;;0.90;99.90;;;;;;5090486;28;19915;-66
2022/12/11 13:34:43;;;;;;;;;;;0.90;99.90;;;;;;5090249;28;19908;-66
2022/12/11 13:37:28;;;;;;;;;;;0.90;99.90;;;;;;5091081;28;19931;-67
2022/12/11 13:39:54;;;;;;;;;;;0.90;99.90;;;;;;5110355;28;20392;-66
2022/12/11 13:42:26;;;;;;;;;;;0.80;99.90;;;;;;5110360;28;19908;-66
2022/12/11 13:44:52;;;;;;;;;;;0.90;99.90;;;;;;5110592;28;20354;-66
2022/12/11 13:47:18;;;;;;;;;;;0.90;99.90;;;;;;5110529;28;19908;-66
2022/12/11 13:49:46;;;;;;;;;;;0.90;99.90;;;;;;5103038;28;20074;-67
2022/12/11 13:52:16;;;;;;;;;;;0.80;99.90;;;;;;5096863;28;19908;-66
2022/12/11 13:54:46;;;;;;;;;;;0.80;99.90;;;;;;5096539;28;19916;-67
2022/12/11 13:57:15;;;;;;;;;;;0.90;99.90;;;;;;5096410;28;19915;-67
2022/12/11 13:59:41;;;;;;;;;;;0.90;99.90;;;;;;5096753;28;20401;-66
2022/12/11 14:02:27;;;;;;;;;;;0.90;99.90;;;;;;5096706;28;20365;-66
2022/12/11 14:04:55;;;;;;;;;;;0.90;99.90;;;;;;5096240;28;19961;-66
2022/12/11 14:07:30;;;;;;;;;;;0.80;99.90;;;;;;5096265;28;20053;-66
2022/12/11 14:09:59;;;;;;;;;;;0.90;99.90;;;;;;5096515;28;19908;-67
2022/12/11 14:12:26;;;;;;;;;;;0.80;99.90;;;;;;5096481;28;19908;-66
2022/12/11 14:14:55;;;;;;;;;;;0.90;99.90;;;;;;5096128;28;19915;-67
2022/12/11 14:17:24;;;;;;;;;;;0.90;99.90;;;;;;5096311;28;19915;-67
2022/12/11 14:19:49;;;;;;;;;;;0.90;99.90;;;;;;5096366;28;19912;-66
2022/12/11 14:22:17;;;;;;;;;;;0.90;99.90;;;;;;5096342;28;20287;-66
2022/12/11 14:24:51;;;;;;;;;;;0.80;99.90;;;;;;5077801;28;19908;-66
2022/12/11 14:27:17;;;;;;;;;;;0.80;99.90;;;;;;5096189;28;19994;-67
2022/12/11 14:29:43;;;;;;;;;;;0.80;99.90;;;;;;5096126;28;19908;-66
2022/12/11 14:32:15;;;;;;;;;;;0.80;99.90;;;;;;5095808;28;19973;-66
2022/12/11 14:34:43;;;;;;;;;;;0.80;99.90;;;;;;5095813;28;19908;-66
2022/12/11 14:37:09;;;;;;;;;;;0.80;99.90;;;;;;5095725;28;19925;-66
2022/12/11 14:39:54;;;;;;;;;;;0.80;99.90;;;;;;5095672;28;19908;-66
2022/12/11 14:42:22;;;;;;;;;;;0.80;99.90;;;;;;5095513;28;20354;-66
2022/12/11 14:44:50;;;;;;;;;;;0.80;99.90;;;;;;5095799;28;19908;-66
2022/12/11 14:47:20;;;;;;;;;;;0.80;99.90;;;;;;5095816;28;20422;-66
2022/12/11 14:49:57;;;;;;;;;;;0.80;99.90;;;;;;5095784;28;20358;-66
2022/12/11 14:52:26;;;;;;;;;;;0.80;99.90;;;;;;5095462;28;19908;-66